Time;durP1;ratioP1;P1;durP2;ratioP2;P2;SDS_P1;SDS_P2;PMS_P1;PMS_P2;Temp;Humidity;BMP_temperature;BMP_pressure;BME280_temperature;BME280_humidity;BME280_pressure;Samples;Min_cycle;Max_cycle;Signal;HPM_P1;HPM_P2
2022/06/10 00:00:46;;;;;;;13.85;2.55;;;16.10;99.90;;;;;;5058535;28;20017;-74
2022/06/10 00:03:13;;;;;;;16.75;2.50;;;16.10;99.90;;;;;;5072546;28;20381;-74
2022/06/10 00:05:42;;;;;;;19.80;3.03;;;16.10;99.90;;;;;;5072517;28;20090;-74
2022/06/10 00:08:10;;;;;;;9.45;2.15;;;16.10;99.90;;;;;;5060532;28;20050;-74
2022/06/10 00:10:36;;;;;;;11.95;2.65;;;16.20;99.90;;;;;;5071516;28;20064;-74
2022/06/10 00:13:03;;;;;;;19.27;2.50;;;16.20;99.90;;;;;;5072441;28;20377;-74
2022/06/10 00:15:29;;;;;;;15.70;2.78;;;16.20;99.90;;;;;;5072697;28;20354;-73
2022/06/10 00:17:55;;;;;;;15.18;2.60;;;16.20;99.90;;;;;;5072122;28;20061;-74
2022/06/10 00:20:25;;;;;;;18.38;2.90;;;16.20;99.90;;;;;;5072265;28;20124;-74
2022/06/10 00:22:51;;;;;;;11.15;2.25;;;16.20;99.90;;;;;;5071923;28;20009;-74
2022/06/10 00:25:17;;;;;;;14.45;2.40;;;16.20;99.90;;;;;;5071776;28;20028;-74
2022/06/10 00:27:43;;;;;;;12.38;2.25;;;16.30;99.90;;;;;;5071911;28;20023;-73
2022/06/10 00:30:10;;;;;;;12.38;2.53;;;16.30;99.90;;;;;;5046717;28;20033;-74
2022/06/10 00:32:37;;;;;;;12.15;2.60;;;16.30;99.90;;;;;;5062011;28;20017;-75
2022/06/10 00:35:04;;;;;;;10.70;2.47;;;16.30;99.90;;;;;;5057829;28;20032;-74
2022/06/10 00:37:30;;;;;;;13.27;2.72;;;16.30;99.90;;;;;;5071586;28;20119;-74
2022/06/10 00:39:56;;;;;;;17.48;2.65;;;16.30;99.90;;;;;;5071821;28;20082;-74
2022/06/10 00:42:22;;;;;;;12.75;2.47;;;16.40;99.90;;;;;;5071847;28;20020;-74
2022/06/10 00:44:52;;;;;;;13.77;2.38;;;16.40;99.90;;;;;;5071613;28;20083;-74
2022/06/10 00:47:34;;;;;;;13.32;2.63;;;16.40;99.90;;;;;;5053931;28;20032;-74
2022/06/10 00:50:20;;;;;;;12.60;2.58;;;16.40;99.90;;;;;;5071763;28;20033;-74
2022/06/10 00:52:53;;;;;;;12.52;2.30;;;16.40;99.90;;;;;;5059245;28;20450;-73
2022/06/10 00:55:28;;;;;;;13.23;2.47;;;16.40;99.90;;;;;;5057328;28;20031;-74
2022/06/10 00:58:00;;;;;;;17.55;2.90;;;16.40;99.90;;;;;;5071307;28;20353;-74
2022/06/10 01:00:27;;;;;;;13.27;2.30;;;16.40;99.90;;;;;;5071493;28;20020;-73
2022/06/10 01:02:53;;;;;;;14.30;3.13;;;16.40;99.90;;;;;;5071126;28;20440;-75
2022/06/10 01:05:23;;;;;;;11.85;2.25;;;16.50;99.90;;;;;;5058371;28;20108;-74
2022/06/10 01:07:59;;;;;;;15.73;2.47;;;16.50;99.90;;;;;;5070424;28;20130;-74
2022/06/10 01:10:26;;;;;;;11.75;2.38;;;16.50;99.90;;;;;;5070993;28;20033;-74
2022/06/10 01:13:12;;;;;;;15.93;2.78;;;16.50;99.90;;;;;;5053068;28;20032;-74
2022/06/10 01:15:59;;;;;;;16.65;2.70;;;16.50;99.90;;;;;;5071327;28;20028;-75
2022/06/10 01:19:10;;;;;;;14.73;2.50;;;16.60;99.90;;;;;;5070793;28;20476;-74
2022/06/10 01:21:49;;;;;;;12.43;2.33;;;16.60;99.90;;;;;;5027110;28;20140;-74
2022/06/10 01:24:42;;;;;;;16.17;2.67;;;16.60;99.90;;;;;;5028514;28;20053;-74
2022/06/10 01:30:32;;;;;;;10.77;2.45;;;16.60;99.90;;;;;;5028321;28;20102;-74
2022/06/10 01:33:25;;;;;;;14.02;2.70;;;16.60;99.90;;;;;;5019935;28;20050;-74
2022/06/10 01:36:28;;;;;;;12.20;2.83;;;16.60;99.90;;;;;;5016867;28;20036;-73
2022/06/10 01:39:20;;;;;;;14.88;2.65;;;16.60;99.90;;;;;;5027835;28;20061;-74
2022/06/10 01:42:11;;;;;;;15.10;2.50;;;16.60;99.90;;;;;;5028105;28;20037;-73
2022/06/10 01:44:50;;;;;;;13.70;2.25;;;16.50;99.90;;;;;;5028001;28;20053;-74
2022/06/10 01:47:28;;;;;;;15.70;2.35;;;16.50;99.90;;;;;;5027619;28;20021;-74
2022/06/10 01:49:54;;;;;;;14.57;2.50;;;16.40;99.90;;;;;;5028047;28;20041;-73
2022/06/10 01:52:33;;;;;;;12.57;2.50;;;16.40;99.90;;;;;;5027755;28;20043;-74
2022/06/10 01:55:20;;;;;;;13.15;2.30;;;16.40;99.90;;;;;;5026475;28;20216;-74
2022/06/10 01:58:04;;;;;;;11.73;2.65;;;16.40;99.90;;;;;;5039442;28;20113;-74
2022/06/10 02:00:33;;;;;;;16.52;2.72;;;16.30;99.90;;;;;;5070305;28;20028;-73
2022/06/10 02:03:05;;;;;;;8.07;2.42;;;16.30;99.90;;;;;;5070192;28;20027;-74
2022/06/10 02:05:37;;;;;;;14.48;2.70;;;16.30;99.90;;;;;;5070433;28;20427;-74
2022/06/10 02:08:20;;;;;;;17.08;3.03;;;16.30;99.90;;;;;;5069909;28;20040;-74
2022/06/10 02:11:07;;;;;;;16.02;2.85;;;16.30;99.90;;;;;;5070274;28;20439;-73
2022/06/10 02:13:46;;;;;;;16.33;2.65;;;16.40;99.90;;;;;;5069915;28;20033;-74
2022/06/10 02:16:16;;;;;;;20.65;2.92;;;16.40;99.90;;;;;;5070030;28;20028;-74
2022/06/10 02:18:57;;;;;;;9.20;2.72;;;16.40;99.90;;;;;;5069928;28;20036;-74
2022/06/10 02:21:42;;;;;;;12.82;3.03;;;16.40;99.90;;;;;;5070060;28;20040;-74
2022/06/10 02:24:21;;;;;;;13.65;2.38;;;16.50;99.90;;;;;;5070381;28;20150;-73
2022/06/10 02:26:49;;;;;;;13.43;2.67;;;16.50;99.90;;;;;;5070099;28;20051;-74
2022/06/10 02:29:21;;;;;;;15.20;2.60;;;16.50;99.90;;;;;;5070279;28;20040;-74
2022/06/10 02:31:52;;;;;;;11.93;2.28;;;16.50;99.90;;;;;;5069994;28;20020;-74
2022/06/10 02:34:18;;;;;;;11.30;2.80;;;16.50;99.90;;;;;;5072357;28;20024;-74
2022/06/10 02:37:16;;;;;;;17.05;2.70;;;16.50;99.90;;;;;;5076833;28;20499;-74
2022/06/10 02:39:52;;;;;;;13.70;2.58;;;16.50;99.90;;;;;;5076847;28;20066;-73
2022/06/10 02:42:30;;;;;;;17.25;3.00;;;16.50;99.90;;;;;;5058968;28;20366;-74
2022/06/10 02:45:02;;;;;;;12.63;2.58;;;16.50;99.90;;;;;;5076297;28;20028;-74
2022/06/10 02:47:40;;;;;;;12.65;2.50;;;16.40;99.90;;;;;;5076841;28;20427;-73
2022/06/10 02:50:07;;;;;;;13.18;2.38;;;16.50;99.90;;;;;;5076726;28;20584;-74
2022/06/10 02:52:34;;;;;;;16.05;2.88;;;16.50;99.90;;;;;;5076904;28;20095;-74
2022/06/10 02:55:00;;;;;;;15.02;2.72;;;16.50;99.90;;;;;;5076027;28;20033;-73
2022/06/10 03:03:21;;;;;;;13.10;2.20;;;16.40;99.90;;;;;;5076648;28;20051;-74
2022/06/10 03:06:25;;;;;;;14.88;2.67;;;16.40;99.90;;;;;;5070073;28;20029;-74
2022/06/10 03:09:08;;;;;;;10.70;2.10;;;16.30;99.90;;;;;;5075980;28;20032;-74
2022/06/10 03:11:40;;;;;;;14.15;2.92;;;16.30;99.90;;;;;;5070057;28;20052;-74
2022/06/10 03:14:06;;;;;;;17.85;2.65;;;16.30;99.90;;;;;;5076039;28;20040;-74
2022/06/10 03:17:12;;;;;;;9.93;2.15;;;16.30;99.90;;;;;;5076501;28;20027;-74
2022/06/10 03:20:02;;;;;;;10.65;2.20;;;16.30;99.90;;;;;;5048558;28;20395;-74
2022/06/10 03:22:46;;;;;;;10.68;2.45;;;16.30;99.90;;;;;;5076252;28;20050;-74
2022/06/10 03:25:28;;;;;;;12.40;2.42;;;16.20;99.90;;;;;;5078074;28;20032;-74
2022/06/10 03:28:15;;;;;;;15.05;3.20;;;16.20;99.90;;;;;;5078066;28;20028;-74
2022/06/10 03:30:49;;;;;;;13.65;3.03;;;16.10;99.90;;;;;;5077698;28;20029;-74
2022/06/10 03:33:37;;;;;;;15.88;3.25;;;16.00;99.90;;;;;;5077759;28;20040;-74
2022/06/10 03:36:10;;;;;;;11.95;2.80;;;16.00;99.90;;;;;;5078636;28;20032;-73
2022/06/10 03:38:42;;;;;;;9.73;2.88;;;16.00;99.90;;;;;;5077217;28;20024;-73
2022/06/10 03:41:16;;;;;;;13.82;2.80;;;15.90;99.90;;;;;;5076285;28;20116;-74
2022/06/10 03:43:42;;;;;;;16.15;3.30;;;15.90;99.90;;;;;;5072855;28;20033;-73
2022/06/10 03:46:11;;;;;;;12.77;2.83;;;15.90;99.90;;;;;;5054265;28;20024;-73
2022/06/10 03:48:40;;;;;;;12.07;2.80;;;15.80;99.90;;;;;;5073507;28;20082;-74
2022/06/10 03:51:08;;;;;;;8.65;2.70;;;15.80;99.90;;;;;;5071170;28;20024;-73
2022/06/10 03:53:34;;;;;;;11.82;2.92;;;15.80;99.90;;;;;;5051645;28;20044;-74
2022/06/10 03:55:59;;;;;;;15.88;3.42;;;15.80;99.90;;;;;;5067794;28;20029;-73
2022/06/10 03:58:25;;;;;;;14.07;3.35;;;15.90;99.90;;;;;;5068481;28;20029;-73
2022/06/10 04:00:51;;;;;;;10.60;3.20;;;15.90;99.90;;;;;;5067717;28;20167;-74
2022/06/10 04:03:17;;;;;;;11.05;3.25;;;15.90;99.90;;;;;;5050893;28;20025;-74
2022/06/10 04:05:43;;;;;;;10.95;3.25;;;15.90;99.90;;;;;;5067501;28;20499;-74
2022/06/10 04:08:09;;;;;;;13.00;3.33;;;15.90;99.90;;;;;;5068279;28;20024;-74
2022/06/10 04:10:35;;;;;;;19.85;3.78;;;16.00;99.90;;;;;;5049542;28;20036;-74
2022/06/10 04:13:01;;;;;;;10.80;3.50;;;16.00;99.90;;;;;;5072315;28;20050;-74
2022/06/10 04:15:27;;;;;;;15.70;3.60;;;16.00;99.90;;;;;;5072176;28;20020;-73
2022/06/10 04:17:55;;;;;;;16.98;3.85;;;16.10;99.90;;;;;;5072215;28;20025;-74
2022/06/10 04:20:24;;;;;;;14.23;3.20;;;16.10;99.90;;;;;;5071217;28;20098;-74
2022/06/10 04:22:50;;;;;;;13.65;3.38;;;16.10;99.90;;;;;;5053632;28;20459;-74
2022/06/10 04:25:16;;;;;;;14.43;3.38;;;16.10;99.90;;;;;;5053684;28;20032;-74
2022/06/10 04:27:42;;;;;;;12.82;3.13;;;16.10;99.90;;;;;;5067568;28;20485;-75
2022/06/10 04:30:15;;;;;;;13.38;2.88;;;16.20;99.90;;;;;;5055626;28;20040;-75
2022/06/10 04:32:41;;;;;;;13.38;3.05;;;16.20;99.90;;;;;;5064902;28;20031;-75
2022/06/10 04:35:07;;;;;;;17.92;3.22;;;16.30;99.90;;;;;;5057571;28;20477;-75
2022/06/10 04:37:32;;;;;;;10.65;3.10;;;16.30;99.90;;;;;;5070340;28;20032;-75
2022/06/10 04:39:58;;;;;;;15.52;3.20;;;16.30;99.90;;;;;;5071836;28;20458;-75
2022/06/10 04:42:23;;;;;;;11.88;2.92;;;16.30;99.90;;;;;;5057475;28;20025;-75
2022/06/10 04:44:49;;;;;;;13.07;3.00;;;16.40;99.90;;;;;;5057697;28;20037;-75
2022/06/10 04:47:14;;;;;;;13.98;2.97;;;16.40;99.90;;;;;;5068991;28;20142;-75
2022/06/10 04:49:40;;;;;;;10.32;2.85;;;16.40;99.90;;;;;;5055716;28;20021;-75
2022/06/10 04:52:06;;;;;;;15.50;3.03;;;16.40;99.90;;;;;;5052342;28;20434;-74
2022/06/10 04:54:32;;;;;;;12.13;2.70;;;16.40;99.90;;;;;;5066725;28;20136;-76
2022/06/10 04:56:57;;;;;;;13.45;2.95;;;16.50;99.90;;;;;;5050416;28;20381;-75
2022/06/10 04:59:23;;;;;;;11.52;3.10;;;16.50;99.90;;;;;;5052117;28;20566;-74
2022/06/10 05:01:49;;;;;;;16.90;3.15;;;16.50;99.90;;;;;;5066684;28;20020;-76
2022/06/10 05:04:14;;;;;;;18.35;3.50;;;16.50;99.90;;;;;;5069122;28;20598;-75
2022/06/10 05:06:40;;;;;;;11.90;2.95;;;16.50;99.90;;;;;;5070662;28;20104;-76
2022/06/10 05:09:06;;;;;;;13.02;2.97;;;16.50;99.90;;;;;;5071344;28;20117;-75
2022/06/10 05:11:31;;;;;;;17.77;3.20;;;16.50;99.90;;;;;;5071291;28;20021;-74
2022/06/10 05:13:57;;;;;;;14.85;3.22;;;16.60;99.90;;;;;;5049284;28;20028;-75
2022/06/10 05:16:23;;;;;;;16.98;2.80;;;16.60;99.90;;;;;;5060768;28;20555;-75
2022/06/10 05:18:49;;;;;;;16.60;3.03;;;16.60;99.90;;;;;;5069423;28;20527;-76
2022/06/10 05:21:15;;;;;;;18.30;2.72;;;16.70;99.90;;;;;;5061048;28;20059;-75
2022/06/10 05:23:44;;;;;;;15.57;3.05;;;16.60;99.90;;;;;;5058478;28;20028;-73
2022/06/10 05:26:11;;;;;;;9.95;2.78;;;16.60;99.90;;;;;;5041825;28;20020;-75
2022/06/10 05:28:36;;;;;;;15.38;3.88;;;16.70;99.90;;;;;;5067388;28;20048;-75
2022/06/10 05:31:02;;;;;;;13.25;3.10;;;16.70;99.90;;;;;;5071397;28;20055;-76
2022/06/10 05:34:44;;;;;;;12.50;2.60;;;16.70;99.90;;;;;;5072022;28;20029;-78
2022/06/10 05:36:13;;;;;;;16.70;3.05;;;16.70;99.90;;;;;;5071047;28;20119;-74
2022/06/10 05:38:38;;;;;;;11.38;3.03;;;16.80;99.90;;;;;;5071513;28;20477;-74
2022/06/10 05:42:04;;;;;;;15.32;2.90;;;16.80;99.90;;;;;;5069540;28;20427;-76
2022/06/10 05:43:49;;;;;;;19.27;2.92;;;16.80;99.90;;;;;;5071369;28;20037;-75
2022/06/10 05:46:15;;;;;;;11.18;2.75;;;16.80;99.90;;;;;;5071293;28;20349;-75
2022/06/10 05:48:42;;;;;;;16.20;3.03;;;16.80;99.90;;;;;;5070593;28;20021;-75
2022/06/10 05:51:08;;;;;;;19.75;3.47;;;16.80;99.90;;;;;;5070287;28;20081;-75
2022/06/10 05:53:33;;;;;;;14.32;3.10;;;16.90;99.90;;;;;;5059857;28;20033;-75
2022/06/10 05:55:59;;;;;;;17.25;2.97;;;16.90;99.90;;;;;;5052110;28;20025;-75
2022/06/10 05:58:24;;;;;;;13.43;2.95;;;16.90;99.90;;;;;;5070198;28;20013;-75
2022/06/10 06:00:50;;;;;;;14.40;3.47;;;16.90;99.90;;;;;;5052486;28;20025;-75
2022/06/10 06:03:16;;;;;;;14.23;2.67;;;17.00;99.90;;;;;;5070099;28;20101;-75
2022/06/10 06:05:42;;;;;;;16.15;3.05;;;17.00;99.90;;;;;;5070272;28;20025;-75
2022/06/10 06:08:08;;;;;;;14.65;3.28;;;17.00;99.90;;;;;;5068169;28;20031;-75
2022/06/10 06:10:34;;;;;;;14.75;3.30;;;17.00;99.90;;;;;;5069673;28;20527;-74
2022/06/10 06:13:00;;;;;;;10.38;2.53;;;17.00;99.90;;;;;;5070237;28;20063;-74
2022/06/10 06:15:25;;;;;;;12.95;2.97;;;17.00;99.90;;;;;;5069973;28;20020;-75
2022/06/10 06:17:52;;;;;;;11.65;3.00;;;17.00;99.90;;;;;;5052140;28;20173;-74
2022/06/10 06:20:19;;;;;;;12.98;2.97;;;17.10;99.90;;;;;;5069781;28;20102;-75
2022/06/10 06:22:44;;;;;;;14.93;3.38;;;17.10;99.90;;;;;;5058666;28;20146;-74
2022/06/10 06:25:15;;;;;;;13.82;3.10;;;17.10;99.90;;;;;;5048777;28;20618;-75
2022/06/10 06:27:42;;;;;;;15.98;2.67;;;17.10;99.90;;;;;;5053327;28;20013;-74
2022/06/10 06:30:14;;;;;;;16.13;3.10;;;17.20;99.90;;;;;;5051722;28;20025;-74
2022/06/10 06:32:41;;;;;;;13.02;2.78;;;17.20;99.90;;;;;;5056141;28;20039;-74
2022/06/10 06:35:07;;;;;;;10.98;2.63;;;17.30;99.90;;;;;;5057617;28;20050;-75
2022/06/10 06:37:33;;;;;;;14.68;2.90;;;17.40;99.90;;;;;;5054069;28;20028;-75
2022/06/10 06:39:59;;;;;;;18.58;3.30;;;17.40;99.90;;;;;;5049891;28;20380;-74
2022/06/10 06:42:25;;;;;;;17.63;3.05;;;17.50;99.90;;;;;;5053567;28;20013;-74
2022/06/10 06:44:50;;;;;;;15.13;2.83;;;17.60;99.90;;;;;;5057744;28;20024;-75
2022/06/10 06:47:16;;;;;;;15.98;3.22;;;17.70;99.90;;;;;;5063898;28;20492;-74
2022/06/10 06:49:42;;;;;;;15.85;3.40;;;17.70;99.90;;;;;;5068111;28;20129;-75
2022/06/10 06:52:08;;;;;;;16.33;3.17;;;17.80;99.90;;;;;;5051090;28;20020;-74
2022/06/10 06:54:37;;;;;;;12.02;3.08;;;17.90;99.90;;;;;;5069628;28;20099;-75
2022/06/10 06:57:04;;;;;;;19.55;3.53;;;18.00;99.90;;;;;;5069682;28;20451;-74
2022/06/10 06:59:31;;;;;;;13.90;2.65;;;18.10;99.90;;;;;;5069591;28;20391;-75
2022/06/10 07:01:56;;;;;;;14.15;2.80;;;18.10;99.90;;;;;;5069656;28;20384;-74
2022/06/10 07:04:22;;;;;;;11.13;3.30;;;18.20;99.90;;;;;;5069487;28;20024;-74
2022/06/10 07:06:48;;;;;;;14.80;3.08;;;18.20;99.90;;;;;;5069629;28;20016;-74
2022/06/10 07:09:14;;;;;;;19.65;3.70;;;18.30;99.90;;;;;;5069553;28;20094;-75
2022/06/10 07:11:39;;;;;;;14.35;2.78;;;18.30;99.90;;;;;;5069462;28;20436;-74
2022/06/10 07:14:05;;;;;;;13.35;2.38;;;18.40;99.90;;;;;;5069680;28;20387;-74
2022/06/10 07:16:31;;;;;;;9.40;2.85;;;18.50;99.90;;;;;;5069756;28;20013;-74
2022/06/10 07:18:57;;;;;;;12.95;2.72;;;18.50;99.90;;;;;;5069406;28;20489;-74
2022/06/10 07:21:22;;;;;;;15.27;3.03;;;18.60;99.90;;;;;;5072487;28;20075;-74
2022/06/10 07:23:49;;;;;;;11.38;2.65;;;18.60;99.90;;;;;;5073119;28;20047;-75
2022/06/10 07:26:15;;;;;;;11.25;2.45;;;18.70;99.90;;;;;;5073047;28;20384;-74
2022/06/10 07:28:41;;;;;;;10.85;2.65;;;18.80;99.90;;;;;;5072798;28;20454;-74
2022/06/10 07:31:07;;;;;;;13.48;2.80;;;18.80;99.90;;;;;;5073160;28;20032;-75
2022/06/10 07:33:35;;;;;;;20.98;3.30;;;18.80;99.90;;;;;;5073043;28;20043;-73
2022/06/10 07:36:02;;;;;;;13.60;3.05;;;18.80;99.90;;;;;;5073613;28;20439;-76
2022/06/10 07:38:27;;;;;;;12.57;2.60;;;18.90;99.90;;;;;;5071670;28;20027;-78
2022/06/10 07:43:39;;;;;;;14.75;2.67;;;19.00;99.90;;;;;;5073446;28;20084;-77
2022/06/10 07:46:05;;;;;;;16.50;2.67;;;19.10;99.90;;;;;;5074466;28;20549;-76
2022/06/10 07:48:33;;;;;;;14.60;2.60;;;19.20;99.90;;;;;;5073190;28;20016;-76
2022/06/10 07:50:58;;;;;;;17.30;2.88;;;19.30;99.90;;;;;;5041464;28;20033;-75
2022/06/10 07:53:24;;;;;;;14.65;3.03;;;19.40;99.90;;;;;;5070594;28;20027;-76
2022/06/10 07:55:50;;;;;;;15.82;2.88;;;19.40;99.90;;;;;;5049124;28;20036;-76
2022/06/10 07:58:18;;;;;;;14.48;2.72;;;19.40;99.90;;;;;;5072785;28;20020;-76
2022/06/10 08:00:44;;;;;;;16.10;3.00;;;19.50;99.90;;;;;;5072843;28;20021;-77
2022/06/10 08:03:10;;;;;;;18.35;3.55;;;19.50;99.90;;;;;;5072901;28;20017;-77
2022/06/10 08:05:36;;;;;;;15.80;2.85;;;19.60;99.90;;;;;;5068202;28;20118;-77
2022/06/10 08:08:02;;;;;;;14.27;2.78;;;19.60;99.90;;;;;;5052958;28;20028;-78
2022/06/10 08:10:31;;;;;;;14.07;3.17;;;19.70;99.90;;;;;;5060788;28;20028;-77
2022/06/10 08:12:57;;;;;;;15.15;2.65;;;19.70;99.90;;;;;;5072443;28;20078;-77
2022/06/10 08:15:24;;;;;;;12.95;3.03;;;19.70;99.90;;;;;;5071696;28;20024;-78
2022/06/10 08:17:50;;;;;;;11.95;3.10;;;19.70;99.90;;;;;;5070734;28;20516;-76
2022/06/10 08:23:22;;;;;;;10.60;3.00;;;19.80;99.90;;;;;;5065881;28;20450;-78
2022/06/10 08:25:48;;;;;;;11.98;3.15;;;19.70;99.90;;;;;;5069129;28;20131;-77
2022/06/10 08:28:14;;;;;;;12.85;3.40;;;19.70;99.90;;;;;;5065733;28;20082;-78
2022/06/10 08:30:40;;;;;;;15.05;3.60;;;19.70;99.90;;;;;;5065758;28;20033;-77
2022/06/10 08:33:06;;;;;;;14.48;3.63;;;19.70;99.90;;;;;;5067976;28;20143;-78
2022/06/10 08:35:33;;;;;;;10.25;3.30;;;19.70;99.90;;;;;;5071502;28;20047;-78
2022/06/10 08:38:00;;;;;;;13.65;3.40;;;19.70;99.90;;;;;;5072424;28;20040;-74
2022/06/10 08:40:32;;;;;;;14.38;3.50;;;19.80;99.90;;;;;;5047006;28;20017;-82
2022/06/10 08:43:08;;;;;;;17.00;4.10;;;19.90;99.90;;;;;;5072962;28;20025;-80
2022/06/10 08:45:46;;;;;;;17.70;3.80;;;20.00;99.90;;;;;;5073374;28;20031;-75
2022/06/10 08:48:20;;;;;;;15.30;3.38;;;20.10;99.90;;;;;;5068876;28;20379;-78
2022/06/10 08:51:01;;;;;;;13.07;3.35;;;20.10;99.90;;;;;;5071951;28;20488;-78
2022/06/10 08:53:58;;;;;;;11.75;3.63;;;20.10;99.90;;;;;;5060937;28;20031;-78
2022/06/10 08:56:34;;;;;;;12.65;3.42;;;20.20;99.90;;;;;;5060559;28;20036;-77
2022/06/10 08:59:22;;;;;;;14.60;3.55;;;20.30;99.90;;;;;;5069290;28;20024;-78
2022/06/10 09:02:04;;;;;;;9.77;3.35;;;20.60;99.90;;;;;;5070765;28;20028;-80
2022/06/10 09:05:02;;;;;;;11.77;3.40;;;20.70;99.90;;;;;;5072090;28;20020;-77
2022/06/10 09:07:52;;;;;;;11.98;3.47;;;20.80;99.90;;;;;;5062109;28;20103;-78
2022/06/10 09:10:21;;;;;;;12.73;3.20;;;20.80;99.90;;;;;;5071349;28;20048;-78
2022/06/10 09:13:06;;;;;;;8.77;2.70;;;20.80;99.90;;;;;;5072692;28;20104;-79
2022/06/10 09:15:34;;;;;;;11.23;3.10;;;20.90;99.90;;;;;;5070563;28;20029;-80
2022/06/10 09:18:09;;;;;;;15.48;2.70;;;21.00;99.90;;;;;;5054103;28;20037;-75
2022/06/10 09:21:07;;;;;;;9.93;2.90;;;21.10;99.90;;;;;;5070621;28;20098;-76
2022/06/10 09:23:43;;;;;;;11.38;2.60;;;21.40;99.90;;;;;;5070162;28;20039;-76
2022/06/10 09:26:10;;;;;;;;;;;21.40;99.90;;;;;;5059322;28;20378;-75
2022/06/10 09:28:42;;;;;;;7.40;2.30;;;21.50;99.90;;;;;;5071049;28;19905;-75
2022/06/10 09:31:41;;;;;;;7.78;2.50;;;21.40;99.90;;;;;;5058058;28;20032;-75
2022/06/10 09:34:26;;;;;;;11.10;2.85;;;21.60;99.90;;;;;;5069751;28;20029;-75
2022/06/10 09:37:05;;;;;;;;;;;21.80;99.90;;;;;;5070605;28;20029;-74
2022/06/10 09:43:03;;;;;;;12.68;2.33;;;22.00;99.90;;;;;;5034107;28;20071;-74
2022/06/10 09:45:42;;;;;;;10.95;2.70;;;22.00;99.90;;;;;;5070589;28;20013;-74
2022/06/10 09:48:46;;;;;;;6.20;1.88;;;21.90;99.90;;;;;;5070572;28;20099;-74
2022/06/10 09:51:32;;;;;;;12.65;2.13;;;21.90;99.90;;;;;;5070253;28;20451;-74
2022/06/10 09:54:13;;;;;;;9.02;1.60;;;22.00;99.90;;;;;;5070327;28;20028;-74
2022/06/10 09:56:51;;;;;;;7.22;1.52;;;22.20;99.90;;;;;;5057585;28;20097;-74
2022/06/10 09:59:37;;;;;;;5.50;1.77;;;22.30;99.90;;;;;;5070665;28;20368;-74
2022/06/10 10:02:30;;;;;;;6.90;1.83;;;22.40;99.90;;;;;;5060089;28;20044;-74
2022/06/10 10:05:17;;;;;;;8.27;1.92;;;22.40;99.90;;;;;;5070365;28;20386;-76
2022/06/10 10:07:46;;;;;;;9.95;1.85;;;22.50;99.90;;;;;;5072860;28;20146;-82
2022/06/10 10:10:31;;;;;;;9.02;1.75;;;22.50;99.90;;;;;;5078852;28;20035;-80
2022/06/10 10:13:16;;;;;;;9.13;1.95;;;22.70;99.90;;;;;;5077185;28;20487;-74
2022/06/10 10:15:51;;;;;;;6.53;1.60;;;22.70;99.90;;;;;;5072176;28;20052;-76
2022/06/10 10:18:22;;;;;;;;;;;22.70;99.90;;;;;;5071634;28;20251;-77
2022/06/10 10:21:02;;;;;;;7.70;1.77;;;22.60;99.90;;;;;;5069353;28;20289;-76
2022/06/10 10:23:36;;;;;;;7.75;2.10;;;22.40;99.90;;;;;;5070368;28;20063;-77
2022/06/10 10:26:12;;;;;;;7.03;2.00;;;22.30;99.90;;;;;;5061968;28;20109;-76
2022/06/10 10:28:41;;;;;;;7.47;2.00;;;22.10;99.90;;;;;;5070054;28;20033;-76
2022/06/10 10:31:21;;;;;;;8.88;2.33;;;22.00;99.90;;;;;;5070342;28;20044;-76
2022/06/10 10:33:47;;;;;;;7.28;2.20;;;22.00;99.90;;;;;;5069893;28;20028;-77
2022/06/10 10:36:30;;;;;;;7.10;2.00;;;22.10;99.90;;;;;;5070378;28;20317;-76
2022/06/10 10:38:56;;;;;;;10.38;2.28;;;22.20;99.90;;;;;;5069878;28;20017;-79
2022/06/10 10:41:26;;;;;;;8.32;2.17;;;22.30;99.90;;;;;;5069656;28;20032;-78
2022/06/10 10:43:55;;;;;;;8.00;2.22;;;22.30;99.90;;;;;;5064897;28;20092;-78
2022/06/10 10:46:40;;;;;;;9.00;2.20;;;22.20;99.90;;;;;;5057569;28;20009;-82
2022/06/10 10:49:34;;;;;;;4.15;1.67;;;22.10;99.90;;;;;;5067741;28;20037;-82
2022/06/10 10:52:08;;;;;;;7.70;1.73;;;22.20;99.90;;;;;;5058853;28;20048;-81
2022/06/10 10:54:36;;;;;;;5.65;1.85;;;22.30;99.90;;;;;;5067536;28;20039;-81
2022/06/10 10:57:33;;;;;;;7.22;2.03;;;22.30;99.90;;;;;;5068803;28;20021;-83
2022/06/10 11:00:09;;;;;;;5.35;1.80;;;22.40;99.90;;;;;;5069728;28;20097;-85
2022/06/10 11:02:41;;;;;;;7.70;2.25;;;22.50;99.90;;;;;;5070868;28;20028;-82
2022/06/10 11:05:17;;;;;;;7.32;1.60;;;22.60;99.90;;;;;;5059316;28;20038;-84
2022/06/10 11:07:46;;;;;;;8.35;1.90;;;22.70;99.90;;;;;;5073077;28;20020;-85
2022/06/10 11:10:24;;;;;;;5.70;1.70;;;22.70;99.90;;;;;;5076900;28;20070;-87
2022/06/10 11:12:51;;;;;;;6.75;1.90;;;22.80;99.90;;;;;;5085460;28;20000;-83
2022/06/10 11:15:29;;;;;;;7.03;1.92;;;23.00;99.90;;;;;;5089131;28;20407;-83
2022/06/10 11:17:57;;;;;;;5.10;1.90;;;23.10;99.90;;;;;;5088075;28;20341;-80
2022/06/10 11:20:28;;;;;;;10.80;2.10;;;23.10;99.90;;;;;;5083535;28;20059;-76
2022/06/10 11:23:20;;;;;;;8.07;2.22;;;23.10;99.90;;;;;;5065512;28;20396;-76
2022/06/10 11:26:11;;;;;;;4.43;1.40;;;23.20;99.90;;;;;;5061262;28;20032;-77
2022/06/10 11:28:40;;;;;;;6.55;2.13;;;23.40;99.60;;;;;;5070432;28;20056;-75
2022/06/10 11:31:21;;;;;;;8.13;1.98;;;23.50;98.60;;;;;;5063144;28;20060;-78
2022/06/10 11:33:51;;;;;;;8.60;2.70;;;23.70;98.50;;;;;;5055910;28;20055;-77
2022/06/10 11:36:35;;;;;;;6.97;2.17;;;23.90;98.00;;;;;;5058179;28;20079;-77
2022/06/10 11:39:21;;;;;;;6.15;2.03;;;24.00;96.80;;;;;;5055110;28;20108;-77
2022/06/10 11:42:07;;;;;;;8.27;2.13;;;23.80;96.50;;;;;;5077895;28;20032;-77
2022/06/10 11:44:53;;;;;;;8.45;2.13;;;23.70;96.80;;;;;;5081516;28;20066;-77
2022/06/10 11:47:47;;;;;;;13.77;2.50;;;23.80;97.60;;;;;;5065053;28;20023;-78
2022/06/10 11:50:19;;;;;;;10.57;2.55;;;23.90;97.10;;;;;;5060929;28;20632;-78
2022/06/10 11:52:57;;;;;;;11.45;2.35;;;23.90;96.70;;;;;;5055526;28;20050;-77
2022/06/10 11:55:27;;;;;;;7.80;2.20;;;23.90;96.50;;;;;;5065920;28;20438;-78
2022/06/10 12:01:13;;;;;;;9.38;2.28;;;24.00;96.50;;;;;;5079904;28;20054;-76
2022/06/10 12:04:03;;;;;;;7.38;1.90;;;24.00;97.00;;;;;;5083321;28;20045;-78
2022/06/10 12:06:43;;;;;;;9.77;2.30;;;23.90;96.40;;;;;;5064470;28;20032;-77
2022/06/10 12:09:15;;;;;;;7.32;1.98;;;23.80;96.50;;;;;;5084035;28;20084;-76
2022/06/10 12:11:46;;;;;;;7.03;1.95;;;23.80;96.90;;;;;;5064461;28;20033;-73
2022/06/10 12:14:22;;;;;;;14.05;2.22;;;23.80;97.40;;;;;;5065406;28;20021;-78
2022/06/10 12:17:04;;;;;;;7.43;2.05;;;23.90;97.20;;;;;;5073533;28;20032;-76
2022/06/10 12:19:41;;;;;;;9.77;1.60;;;23.90;97.40;;;;;;5085541;28;20029;-79
2022/06/10 12:22:11;;;;;;;6.25;1.60;;;24.00;97.40;;;;;;5087781;28;20041;-76
2022/06/10 12:24:38;;;;;;;13.20;1.95;;;24.10;97.70;;;;;;5069651;28;20027;-77
2022/06/10 12:27:06;;;;;;;5.63;1.90;;;24.20;97.40;;;;;;5069035;28;20031;-86
2022/06/10 12:29:47;;;;;;;12.18;2.00;;;24.30;97.20;;;;;;5066689;28;20366;-79
2022/06/10 12:32:26;;;;;;;10.90;2.22;;;24.20;97.20;;;;;;5085426;28;20435;-83
2022/06/10 12:34:55;;;;;;;10.77;2.50;;;24.10;97.40;;;;;;5091767;28;20039;-84
2022/06/10 12:37:21;;;;;;;6.28;2.33;;;24.00;97.90;;;;;;5057244;28;20021;-75
2022/06/10 12:40:09;;;;;;;7.53;2.42;;;24.00;98.10;;;;;;5081655;28;20027;-77
2022/06/10 12:42:42;;;;;;;13.80;2.55;;;24.00;98.00;;;;;;5080339;28;20025;-78
2022/06/10 12:45:26;;;;;;;10.63;2.50;;;23.90;98.80;;;;;;5072315;28;20024;-77
2022/06/10 12:47:55;;;;;;;9.15;2.45;;;24.00;99.10;;;;;;5079868;28;20032;-78
2022/06/10 12:50:36;;;;;;;9.32;2.40;;;24.20;99.20;;;;;;5074238;28;20025;-77
2022/06/10 12:53:30;;;;;;;7.75;2.33;;;24.40;99.00;;;;;;5074464;28;20354;-77
2022/06/10 12:55:59;;;;;;;7.00;2.35;;;24.50;97.30;;;;;;5052313;28;20025;-78
2022/06/10 12:59:09;;;;;;;8.85;2.30;;;24.30;96.90;;;;;;5075789;28;20024;-79
2022/06/10 13:01:35;;;;;;;7.72;2.35;;;24.00;97.90;;;;;;5073839;28;20021;-76
2022/06/10 13:04:22;;;;;;;7.13;2.88;;;23.80;98.90;;;;;;5054490;28;20023;-80
2022/06/10 13:06:56;;;;;;;5.97;2.53;;;23.70;99.80;;;;;;5059360;28;20035;-80
2022/06/10 13:09:31;;;;;;;4.22;2.00;;;23.60;99.90;;;;;;5072116;28;20025;-81
2022/06/10 13:12:09;;;;;;;6.47;1.90;;;23.50;99.90;;;;;;5062964;28;20055;-82
2022/06/10 13:14:41;;;;;;;6.97;2.03;;;23.30;99.90;;;;;;5068963;28;20054;-81
2022/06/10 13:17:13;;;;;;;4.32;1.58;;;23.20;99.90;;;;;;5061361;28;20495;-80
2022/06/10 13:19:57;;;;;;;5.72;1.80;;;23.10;99.90;;;;;;5054523;28;20028;-82
2022/06/10 13:22:30;;;;;;;3.88;1.98;;;23.30;99.90;;;;;;5056013;28;20101;-82
2022/06/10 13:24:56;;;;;;;4.20;2.00;;;23.50;99.90;;;;;;5045658;28;20036;-80
2022/06/10 13:27:39;;;;;;;3.28;1.90;;;23.60;99.90;;;;;;5059618;28;20017;-79
2022/06/10 13:30:17;;;;;;;4.82;2.20;;;23.70;99.90;;;;;;5073783;28;20483;-80
2022/06/10 13:32:48;;;;;;;3.65;1.90;;;23.90;99.90;;;;;;5069928;28;20028;-80